CMA CGM Amber — 2BHA6 — position and weather

sailwx.info

Track history (hours):
 
Tides and Currents Weather Stations Pressure Air Temp Water Temp Dewpoint Dewpoint Depression Visibility Wind Speed Wind Dir Waves Ship Positions

CMA CGM Amber

Last reported at 2017-Oct-16 01:33 UTC. Time now 2017-Oct-17 22:36 UTC.
Position N 36°22' W 009°23'.

Length 281 m; draft 11.4 m.

Type: Ship (hazmat cat A). MMSI: 235066053.

Date/timePositionNaut miles runAvg speedWind from/ knotsBaromVisibWave heightAir tempDewpointWater temp
2017-Oct-16 01:33N 36°22' W 009°23'120.9
2017-Oct-16 01:30N 36°22' W 009°22'918.5
2017-Oct-16 01:00N 36°18' W 009°11'918.3
2017-Oct-16 00:30N 36°15' W 009°01'1518.8
2017-Oct-15 23:42N 36°09' W 008°43'2518.8
2017-Oct-15 22:23N 36°00' W 008°15'818.8
2017-Oct-15 21:59N 35°60' W 008°06'918.8
2017-Oct-15 21:30N 35°60' W 007°55'918.7
2017-Oct-15 21:00N 36°00' W 007°43'918.9
2017-Oct-15 20:30N 36°01' W 007°31'5818.5
2017-Oct-15 17:23N 35°58' W 006°20'3718.3
2017-Oct-15 15:23N 35°57' W 005°35'616.5
2017-Oct-15 15:01N 35°59' W 005°28'2018.2
2017-Oct-15 13:53N 36°03' W 005°03'718.6
2017-Oct-15 13:29N 36°04' W 004°54'19017.8
2017-Oct-15 02:49N 37°10' W 001°12'718.7
2017-Oct-15 02:26N 37°14' W 001°05'918.7
2017-Oct-15 01:58N 37°19' W 000°56'918.7
2017-Oct-15 01:30N 37°25' W 000°47'1318.3
2017-Oct-15 00:48N 37°33' W 000°35'518.1
2017-Oct-15 00:30N 37°38' W 000°31'5618.6
2017-Oct-14 21:29N 38°24' E 000°08'1618.3
2017-Oct-14 20:38N 38°37' E 000°19'317.8
2017-Oct-14 20:27N 38°40' E 000°22'178 3.9
2017-Oct-12 22:13N 41°16' E 002°12'7113.3
2017-Oct-12 16:54N 41°53' E 003°33'513.4
2017-Oct-12 16:30N 41°57' E 003°37'713.3
2017-Oct-12 16:00N 42°02' E 003°43'713.4
2017-Oct-12 15:30N 42°07' E 003°49'713.3
2017-Oct-12 15:00N 42°12' E 003°55'713.3
2017-Oct-12 14:30N 42°17' E 004°00'713.2
2017-Oct-12 14:00N 42°23' E 004°06'713.3
2017-Oct-12 13:30N 42°28' E 004°12'713.2
2017-Oct-12 13:00N 42°33' E 004°17'713.2
2017-Oct-12 12:30N 42°38' E 004°23'713.4
2017-Oct-12 12:00N 42°43' E 004°29'713.2
2017-Oct-12 11:30N 42°48' E 004°34'713.1
2017-Oct-12 11:00N 42°53' E 004°40'713.2
2017-Oct-12 10:30N 42°58' E 004°46'713.3
2017-Oct-12 10:00N 43°04' E 004°52'713.3
2017-Oct-12 09:30N 43°09' E 004°57'612.1
2017-Oct-12 09:00N 43°14' E 005°00'713.1
2017-Oct-12 08:30N 43°21' E 004°58'5 9.8
2017-Oct-12 08:00N 43°24' E 004°53'2 3.3
2017-Oct-12 07:29N 43°25' E 004°51'96 3.0
2017-Oct-10 23:50N 43°06' E 006°60'514.4
2017-Oct-10 23:30N 43°09' E 007°05'714.3
2017-Oct-10 23:00N 43°13' E 007°12'714.3
2017-Oct-10 22:30N 43°18' E 007°20'714.3
2017-Oct-10 22:00N 43°22' E 007°28'714.1
2017-Oct-10 21:30N 43°27' E 007°35'714.3
2017-Oct-10 21:00N 43°31' E 007°43'714.4
2017-Oct-10 20:30N 43°36' E 007°51'714.3
2017-Oct-10 20:00N 43°40' E 007°58'714.3
2017-Oct-10 19:30N 43°44' E 008°06'714.2
2017-Oct-10 19:00N 43°49' E 008°13'714.4
2017-Oct-10 18:30N 43°55' E 008°19'714.5
2017-Oct-10 18:00N 44°01' E 008°25'714.5
2017-Oct-10 17:30N 44°07' E 008°30'714.0
2017-Oct-10 17:01N 44°13' E 008°35'714.3
2017-Oct-10 16:30N 44°20' E 008°40'612.7
2017-Oct-10 16:00N 44°25' E 008°45'2 3.1
2017-Oct-10 15:28N 44°25' E 008°47'0 0.0
2017-Oct-10 15:00N 44°25' E 008°47'0 0.0
2017-Oct-10 14:00N 44°25' E 008°47'0 0.0
2017-Oct-10 13:30N 44°25' E 008°47'0 0.0
2017-Oct-10 13:00N 44°25' E 008°47'0 0.0
2017-Oct-10 12:29N 44°25' E 008°47'0 0.0
2017-Oct-10 11:59N 44°25' E 008°47'0 0.0
2017-Oct-10 11:29N 44°25' E 008°47'0 0.0
2017-Oct-10 10:59N 44°25' E 008°47'0 0.0
2017-Oct-10 10:28N 44°25' E 008°47'0 0.0
2017-Oct-10 09:58N 44°25' E 008°47'0 0.0
2017-Oct-10 09:28N 44°25' E 008°47'0 0.0
2017-Oct-10 08:58N 44°25' E 008°47'0 0.0
2017-Oct-10 08:28N 44°25' E 008°47'0 0.0
2017-Oct-10 08:00N 44°25' E 008°47'0 0.0
2017-Oct-10 07:30N 44°25' E 008°47'0 0.0
2017-Oct-10 07:00N 44°25' E 008°47'0 0.0
2017-Oct-10 06:30N 44°25' E 008°47'0 0.0
2017-Oct-10 06:00N 44°25' E 008°47'0 0.0
2017-Oct-10 05:29N 44°25' E 008°47'0 0.0
2017-Oct-10 04:59N 44°25' E 008°47'0 0.0
2017-Oct-10 04:29N 44°25' E 008°47'0 0.0
2017-Oct-10 03:59N 44°25' E 008°47'0 0.0
2017-Oct-10 03:28N 44°25' E 008°47'0 0.0
2017-Oct-10 02:58N 44°25' E 008°47'0 0.0
2017-Oct-10 02:28N 44°25' E 008°47'0 0.0
2017-Oct-10 01:58N 44°25' E 008°47'0 0.0
2017-Oct-10 01:28N 44°25' E 008°47'0 0.0
2017-Oct-10 01:00N 44°25' E 008°47'0 0.0
2017-Oct-10 00:30N 44°25' E 008°47'0 0.0
2017-Oct-10 00:00N 44°25' E 008°47'0 0.0
2017-Oct-09 23:30N 44°25' E 008°47'0 0.0
2017-Oct-09 23:00N 44°25' E 008°47'0 0.0
2017-Oct-09 22:29N 44°25' E 008°47'0 0.0
2017-Oct-09 21:59N 44°25' E 008°47'0 0.0
2017-Oct-09 21:29N 44°25' E 008°47'0 0.0
2017-Oct-09 20:59N 44°25' E 008°47'0 0.0
2017-Oct-09 20:28N 44°25' E 008°47'0 0.0
2017-Oct-09 19:58N 44°25' E 008°47'0 0.0
2017-Oct-09 19:28N 44°25' E 008°47'0 0.0
2017-Oct-09 18:58N 44°25' E 008°47'0 0.0
2017-Oct-09 18:25N 44°25' E 008°47'0 0.0
2017-Oct-09 18:00N 44°25' E 008°47'0 0.0
2017-Oct-09 17:30N 44°25' E 008°47'0 0.0
2017-Oct-09 17:00N 44°25' E 008°47'0 0.0
2017-Oct-09 16:30N 44°25' E 008°47'0 0.2
2017-Oct-09 16:01N 44°25' E 008°47'2 4.6
2017-Oct-09 15:30N 44°24' E 008°45'1 1.6
2017-Oct-09 14:59N 44°23' E 008°45'0 0.0
2017-Oct-09 14:29N 44°23' E 008°45'0 0.0
2017-Oct-09 13:59N 44°23' E 008°45'0 0.0
2017-Oct-09 13:26N 44°23' E 008°45'0 0.0
2017-Oct-09 12:58N 44°23' E 008°45'0 0.0
2017-Oct-09 12:25N 44°23' E 008°45'0 0.0
2017-Oct-09 11:58N 44°23' E 008°45'0 0.0
2017-Oct-09 11:28N 44°23' E 008°45'0 0.0
2017-Oct-09 11:00N 44°23' E 008°45'0 0.0
2017-Oct-09 10:27N 44°23' E 008°45'0 0.0
2017-Oct-09 10:00N 44°23' E 008°45'0 0.0
2017-Oct-09 09:30N 44°23' E 008°45'0 0.0
2017-Oct-09 09:00N 44°23' E 008°45'0 0.0
2017-Oct-09 08:26N 44°23' E 008°45'0 0.0
2017-Oct-09 07:53N 44°23' E 008°45'0 0.1
2017-Oct-09 07:29N 44°23' E 008°45'0 0.0
2017-Oct-09 06:59N 44°23' E 008°45'0 0.0
2017-Oct-09 06:29N 44°23' E 008°45'0 0.0
2017-Oct-09 05:58N 44°23' E 008°45'0 0.1
2017-Oct-09 05:28N 44°23' E 008°45'0 0.3
2017-Oct-09 05:00N 44°23' E 008°45'4 7.7
2017-Oct-09 04:31N 44°20' E 008°44'815.8
2017-Oct-09 04:00N 44°14' E 008°51'815.8
2017-Oct-09 03:31N 44°08' E 008°59'816.0
2017-Oct-09 03:00N 44°02' E 009°06'816.1
2017-Oct-09 02:30N 43°56' E 009°14'916.0
2017-Oct-09 01:58N 43°50' E 009°22'715.8
2017-Oct-09 01:31N 43°45' E 009°29'815.5
2017-Oct-09 00:59N 43°40' E 009°39'815.7
2017-Oct-09 00:30N 43°37' E 009°48'815.7
2017-Oct-09 00:00N 43°33' E 009°57'715.0
2017-Oct-08 23:30N 43°30' E 010°06'611.6
2017-Oct-08 23:00N 43°32' E 010°14'3 5.7
2017-Oct-08 22:30N 43°33' E 010°17'2 3.0
2017-Oct-08 22:00N 43°34' E 010°18'0 0.0
2017-Oct-08 21:30N 43°34' E 010°18'0 0.0
2017-Oct-08 20:57N 43°34' E 010°18'0 0.0
2017-Oct-08 20:30N 43°34' E 010°18'0 0.0
2017-Oct-08 19:59N 43°34' E 010°18'0 0.0
2017-Oct-08 19:29N 43°34' E 010°18'0 0.0
2017-Oct-08 18:53N 43°34' E 010°18'0 0.0
2017-Oct-08 18:29N 43°34' E 010°18'0 0.0
2017-Oct-08 17:55N 43°34' E 010°18'0 0.0
2017-Oct-08 17:28N 43°34' E 010°18'0 0.0
2017-Oct-08 16:58N 43°34' E 010°18'0 0.0
2017-Oct-08 16:28N 43°34' E 010°18'0 0.0
2017-Oct-08 15:58N 43°34' E 010°18'0 0.0
2017-Oct-08 15:30N 43°34' E 010°18'0 0.0
2017-Oct-08 15:00N 43°34' E 010°18'0 0.0
2017-Oct-08 14:30N 43°34' E 010°18'0 0.0
2017-Oct-08 14:00N 43°34' E 010°18'0 0.0
2017-Oct-08 13:24N 43°34' E 010°18'0 0.0
2017-Oct-08 12:59N 43°34' E 010°18'0 0.0
2017-Oct-08 12:26N 43°34' E 010°18'0 0.0
2017-Oct-08 11:59N 43°34' E 010°18'0 0.0
2017-Oct-08 11:29N 43°34' E 010°18'0 0.0
2017-Oct-08 10:58N 43°34' E 010°18'0 0.5
2017-Oct-08 10:30N 43°34' E 010°18'2 4.5
2017-Oct-08 10:00N 43°32' E 010°17'611.0
2017-Oct-08 09:31N 43°28' E 010°11'510.2
2017-Oct-08 09:01N 43°23' E 010°11'510.1
2017-Oct-08 08:31N 43°19' E 010°09'510.7
2017-Oct-08 08:00N 43°14' E 010°06'917.3
2017-Oct-08 07:30N 43°05' E 010°03'917.4
2017-Oct-08 07:00N 42°57' E 009°59'32317.3
2017-Oct-07 12:23N 39°06' E 014°58'718.0
2017-Oct-07 11:59N 39°01' E 015°05'918.1
2017-Oct-07 11:30N 38°56' E 015°14'918.2
2017-Oct-07 11:00N 38°49' E 015°22'917.9
2017-Oct-07 10:30N 38°41' E 015°27'918.3
2017-Oct-07 10:00N 38°33' E 015°33'917.9
2017-Oct-07 09:30N 38°25' E 015°38'917.7
2017-Oct-07 09:01N 38°17' E 015°43'713.7
2017-Oct-07 08:30N 38°12' E 015°37'714.7
2017-Oct-07 08:01N 38°05' E 015°36'817.0
2017-Oct-07 07:31N 37°57' E 015°35'917.6
2017-Oct-07 07:01N 37°48' E 015°34'917.6
2017-Oct-07 06:30N 37°39' E 015°33'917.6
2017-Oct-07 05:59N 37°30' E 015°32'1417.5
2017-Oct-07 05:11N 37°16' E 015°30'717.5
2017-Oct-07 04:47N 37°09' E 015°30'7017.8
2017-Oct-07 00:51N 36°03' E 015°01'617.7
2017-Oct-07 00:30N 35°57' E 014°57'1217.2
2017-Oct-06 23:47N 35°50' E 014°45'518.3
2017-Oct-06 23:30N 35°48' E 014°39'510.1
2017-Oct-06 22:58N 35°49' E 014°33'0 0.3
2017-Oct-06 22:30N 35°49' E 014°33'0 0.0
2017-Oct-06 22:00N 35°49' E 014°33'0 0.0
2017-Oct-06 21:12N 35°49' E 014°33'0 0.0
2017-Oct-06 20:05N 35°49' E 014°33'0 0.0
2017-Oct-06 19:47N 35°49' E 014°33'0 0.0
2017-Oct-06 19:29N 35°49' E 014°33'0 0.0
2017-Oct-06 14:27N 35°49' E 014°33'0 0.0
2017-Oct-06 13:57N 35°49' E 014°33'0 0.0
2017-Oct-06 13:27N 35°49' E 014°33'0 0.0
2017-Oct-06 11:10N 35°49' E 014°33'0 0.0
2017-Oct-06 10:55N 35°49' E 014°33'0 0.0
2017-Oct-06 10:25N 35°49' E 014°33'0 0.0
2017-Oct-06 09:52N 35°49' E 014°33'0 0.0
2017-Oct-06 09:25N 35°49' E 014°33'0 0.0
2017-Oct-06 07:15N 35°49' E 014°33'0 0.0
2017-Oct-06 06:54N 35°49' E 014°33'0 0.0
2017-Oct-06 06:29N 35°49' E 014°33'0 0.0
2017-Oct-06 05:59N 35°49' E 014°33'0 0.0
2017-Oct-06 05:26N 35°49' E 014°33'  
Track history (hours):
 
Tides and Currents Weather Stations Pressure Air Temp Water Temp Dewpoint Dewpoint Depression Visibility Wind Speed Wind Dir Waves Ship Positions

CMA CGM Amber

Last reported at 2017-Oct-16 01:33 UTC. Time now 2017-Oct-17 22:36 UTC.
Position N 36°22' W 009°23'.

Length 281 m; draft 11.4 m.

Type: Ship (hazmat cat A). MMSI: 235066053.

Date/timePositionNaut miles runAvg speedWind from/ knotsBaromVisibWave heightAir tempDewpointWater temp
2017-Oct-16 01:33N 36°22' W 009°23'120.9
2017-Oct-16 01:30N 36°22' W 009°22'918.5
2017-Oct-16 01:00N 36°18' W 009°11'918.3
2017-Oct-16 00:30N 36°15' W 009°01'1518.8
2017-Oct-15 23:42N 36°09' W 008°43'2518.8
2017-Oct-15 22:23N 36°00' W 008°15'818.8
2017-Oct-15 21:59N 35°60' W 008°06'918.8
2017-Oct-15 21:30N 35°60' W 007°55'918.7
2017-Oct-15 21:00N 36°00' W 007°43'918.9
2017-Oct-15 20:30N 36°01' W 007°31'5818.5
2017-Oct-15 17:23N 35°58' W 006°20'3718.3
2017-Oct-15 15:23N 35°57' W 005°35'616.5
2017-Oct-15 15:01N 35°59' W 005°28'2018.2
2017-Oct-15 13:53N 36°03' W 005°03'718.6
2017-Oct-15 13:29N 36°04' W 004°54'19017.8
2017-Oct-15 02:49N 37°10' W 001°12'718.7
2017-Oct-15 02:26N 37°14' W 001°05'918.7
2017-Oct-15 01:58N 37°19' W 000°56'918.7
2017-Oct-15 01:30N 37°25' W 000°47'1318.3
2017-Oct-15 00:48N 37°33' W 000°35'518.1
2017-Oct-15 00:30N 37°38' W 000°31'5618.6
2017-Oct-14 21:29N 38°24' E 000°08'1618.3
2017-Oct-14 20:38N 38°37' E 000°19'317.8
2017-Oct-14 20:27N 38°40' E 000°22'178 3.9
2017-Oct-12 22:13N 41°16' E 002°12'7113.3
2017-Oct-12 16:54N 41°53' E 003°33'513.4
2017-Oct-12 16:30N 41°57' E 003°37'713.3
2017-Oct-12 16:00N 42°02' E 003°43'713.4
2017-Oct-12 15:30N 42°07' E 003°49'713.3
2017-Oct-12 15:00N 42°12' E 003°55'713.3
2017-Oct-12 14:30N 42°17' E 004°00'713.2
2017-Oct-12 14:00N 42°23' E 004°06'713.3
2017-Oct-12 13:30N 42°28' E 004°12'713.2
2017-Oct-12 13:00N 42°33' E 004°17'713.2
2017-Oct-12 12:30N 42°38' E 004°23'713.4
2017-Oct-12 12:00N 42°43' E 004°29'713.2
2017-Oct-12 11:30N 42°48' E 004°34'713.1
2017-Oct-12 11:00N 42°53' E 004°40'713.2
2017-Oct-12 10:30N 42°58' E 004°46'713.3
2017-Oct-12 10:00N 43°04' E 004°52'713.3
2017-Oct-12 09:30N 43°09' E 004°57'612.1
2017-Oct-12 09:00N 43°14' E 005°00'713.1
2017-Oct-12 08:30N 43°21' E 004°58'5 9.8
2017-Oct-12 08:00N 43°24' E 004°53'2 3.3
2017-Oct-12 07:29N 43°25' E 004°51'96 3.0
2017-Oct-10 23:50N 43°06' E 006°60'514.4
2017-Oct-10 23:30N 43°09' E 007°05'714.3
2017-Oct-10 23:00N 43°13' E 007°12'714.3
2017-Oct-10 22:30N 43°18' E 007°20'714.3
2017-Oct-10 22:00N 43°22' E 007°28'714.1
2017-Oct-10 21:30N 43°27' E 007°35'714.3
2017-Oct-10 21:00N 43°31' E 007°43'714.4
2017-Oct-10 20:30N 43°36' E 007°51'714.3
2017-Oct-10 20:00N 43°40' E 007°58'714.3
2017-Oct-10 19:30N 43°44' E 008°06'714.2
2017-Oct-10 19:00N 43°49' E 008°13'714.4
2017-Oct-10 18:30N 43°55' E 008°19'714.5
2017-Oct-10 18:00N 44°01' E 008°25'714.5
2017-Oct-10 17:30N 44°07' E 008°30'714.0
2017-Oct-10 17:01N 44°13' E 008°35'714.3
2017-Oct-10 16:30N 44°20' E 008°40'612.7
2017-Oct-10 16:00N 44°25' E 008°45'2 3.1
2017-Oct-10 15:28N 44°25' E 008°47'0 0.0
2017-Oct-10 15:00N 44°25' E 008°47'0 0.0
2017-Oct-10 14:00N 44°25' E 008°47'0 0.0
2017-Oct-10 13:30N 44°25' E 008°47'0 0.0
2017-Oct-10 13:00N 44°25' E 008°47'0 0.0
2017-Oct-10 12:29N 44°25' E 008°47'0 0.0
2017-Oct-10 11:59N 44°25' E 008°47'0 0.0
2017-Oct-10 11:29N 44°25' E 008°47'0 0.0
2017-Oct-10 10:59N 44°25' E 008°47'0 0.0
2017-Oct-10 10:28N 44°25' E 008°47'0 0.0
2017-Oct-10 09:58N 44°25' E 008°47'0 0.0
2017-Oct-10 09:28N 44°25' E 008°47'0 0.0
2017-Oct-10 08:58N 44°25' E 008°47'0 0.0
2017-Oct-10 08:28N 44°25' E 008°47'0 0.0
2017-Oct-10 08:00N 44°25' E 008°47'0 0.0
2017-Oct-10 07:30N 44°25' E 008°47'0 0.0
2017-Oct-10 07:00N 44°25' E 008°47'0 0.0
2017-Oct-10 06:30N 44°25' E 008°47'0 0.0
2017-Oct-10 06:00N 44°25' E 008°47'0 0.0
2017-Oct-10 05:29N 44°25' E 008°47'0 0.0
2017-Oct-10 04:59N 44°25' E 008°47'0 0.0
2017-Oct-10 04:29N 44°25' E 008°47'0 0.0
2017-Oct-10 03:59N 44°25' E 008°47'0 0.0
2017-Oct-10 03:28N 44°25' E 008°47'0 0.0
2017-Oct-10 02:58N 44°25' E 008°47'0 0.0
2017-Oct-10 02:28N 44°25' E 008°47'0 0.0
2017-Oct-10 01:58N 44°25' E 008°47'0 0.0
2017-Oct-10 01:28N 44°25' E 008°47'0 0.0
2017-Oct-10 01:00N 44°25' E 008°47'0 0.0
2017-Oct-10 00:30N 44°25' E 008°47'0 0.0
2017-Oct-10 00:00N 44°25' E 008°47'0 0.0
2017-Oct-09 23:30N 44°25' E 008°47'0 0.0
2017-Oct-09 23:00N 44°25' E 008°47'0 0.0
2017-Oct-09 22:29N 44°25' E 008°47'0 0.0
2017-Oct-09 21:59N 44°25' E 008°47'0 0.0
2017-Oct-09 21:29N 44°25' E 008°47'0 0.0
2017-Oct-09 20:59N 44°25' E 008°47'0 0.0
2017-Oct-09 20:28N 44°25' E 008°47'0 0.0
2017-Oct-09 19:58N 44°25' E 008°47'0 0.0
2017-Oct-09 19:28N 44°25' E 008°47'0 0.0
2017-Oct-09 18:58N 44°25' E 008°47'0 0.0
2017-Oct-09 18:25N 44°25' E 008°47'0 0.0
2017-Oct-09 18:00N 44°25' E 008°47'0 0.0
2017-Oct-09 17:30N 44°25' E 008°47'0 0.0
2017-Oct-09 17:00N 44°25' E 008°47'0 0.0
2017-Oct-09 16:30N 44°25' E 008°47'0 0.2
2017-Oct-09 16:01N 44°25' E 008°47'2 4.6
2017-Oct-09 15:30N 44°24' E 008°45'1 1.6
2017-Oct-09 14:59N 44°23' E 008°45'0 0.0
2017-Oct-09 14:29N 44°23' E 008°45'0 0.0
2017-Oct-09 13:59N 44°23' E 008°45'0 0.0
2017-Oct-09 13:26N 44°23' E 008°45'0 0.0
2017-Oct-09 12:58N 44°23' E 008°45'0 0.0
2017-Oct-09 12:25N 44°23' E 008°45'0 0.0
2017-Oct-09 11:58N 44°23' E 008°45'0 0.0
2017-Oct-09 11:28N 44°23' E 008°45'0 0.0
2017-Oct-09 11:00N 44°23' E 008°45'0 0.0
2017-Oct-09 10:27N 44°23' E 008°45'0 0.0
2017-Oct-09 10:00N 44°23' E 008°45'0 0.0
2017-Oct-09 09:30N 44°23' E 008°45'0 0.0
2017-Oct-09 09:00N 44°23' E 008°45'0 0.0
2017-Oct-09 08:26N 44°23' E 008°45'0 0.0
2017-Oct-09 07:53N 44°23' E 008°45'0 0.1
2017-Oct-09 07:29N 44°23' E 008°45'0 0.0
2017-Oct-09 06:59N 44°23' E 008°45'0 0.0
2017-Oct-09 06:29N 44°23' E 008°45'0 0.0
2017-Oct-09 05:58N 44°23' E 008°45'0 0.1
2017-Oct-09 05:28N 44°23' E 008°45'0 0.3
2017-Oct-09 05:00N 44°23' E 008°45'4 7.7
2017-Oct-09 04:31N 44°20' E 008°44'815.8
2017-Oct-09 04:00N 44°14' E 008°51'815.8
2017-Oct-09 03:31N 44°08' E 008°59'816.0
2017-Oct-09 03:00N 44°02' E 009°06'816.1
2017-Oct-09 02:30N 43°56' E 009°14'916.0
2017-Oct-09 01:58N 43°50' E 009°22'715.8
2017-Oct-09 01:31N 43°45' E 009°29'815.5
2017-Oct-09 00:59N 43°40' E 009°39'815.7
2017-Oct-09 00:30N 43°37' E 009°48'815.7
2017-Oct-09 00:00N 43°33' E 009°57'715.0
2017-Oct-08 23:30N 43°30' E 010°06'611.6
2017-Oct-08 23:00N 43°32' E 010°14'3 5.7
2017-Oct-08 22:30N 43°33' E 010°17'2 3.0
2017-Oct-08 22:00N 43°34' E 010°18'0 0.0
2017-Oct-08 21:30N 43°34' E 010°18'0 0.0
2017-Oct-08 20:57N 43°34' E 010°18'0 0.0
2017-Oct-08 20:30N 43°34' E 010°18'0 0.0
2017-Oct-08 19:59N 43°34' E 010°18'0 0.0
2017-Oct-08 19:29N 43°34' E 010°18'0 0.0
2017-Oct-08 18:53N 43°34' E 010°18'0 0.0
2017-Oct-08 18:29N 43°34' E 010°18'0 0.0
2017-Oct-08 17:55N 43°34' E 010°18'0 0.0
2017-Oct-08 17:28N 43°34' E 010°18'0 0.0
2017-Oct-08 16:58N 43°34' E 010°18'0 0.0
2017-Oct-08 16:28N 43°34' E 010°18'0 0.0
2017-Oct-08 15:58N 43°34' E 010°18'0 0.0
2017-Oct-08 15:30N 43°34' E 010°18'0 0.0
2017-Oct-08 15:00N 43°34' E 010°18'0 0.0
2017-Oct-08 14:30N 43°34' E 010°18'0 0.0
2017-Oct-08 14:00N 43°34' E 010°18'0 0.0
2017-Oct-08 13:24N 43°34' E 010°18'0 0.0
2017-Oct-08 12:59N 43°34' E 010°18'0 0.0
2017-Oct-08 12:26N 43°34' E 010°18'0 0.0
2017-Oct-08 11:59N 43°34' E 010°18'0 0.0
2017-Oct-08 11:29N 43°34' E 010°18'0 0.0
2017-Oct-08 10:58N 43°34' E 010°18'0 0.5
2017-Oct-08 10:30N 43°34' E 010°18'2 4.5
2017-Oct-08 10:00N 43°32' E 010°17'611.0
2017-Oct-08 09:31N 43°28' E 010°11'510.2
2017-Oct-08 09:01N 43°23' E 010°11'510.1
2017-Oct-08 08:31N 43°19' E 010°09'510.7
2017-Oct-08 08:00N 43°14' E 010°06'917.3
2017-Oct-08 07:30N 43°05' E 010°03'917.4
2017-Oct-08 07:00N 42°57' E 009°59'32317.3
2017-Oct-07 12:23N 39°06' E 014°58'718.0
2017-Oct-07 11:59N 39°01' E 015°05'918.1
2017-Oct-07 11:30N 38°56' E 015°14'918.2
2017-Oct-07 11:00N 38°49' E 015°22'917.9
2017-Oct-07 10:30N 38°41' E 015°27'918.3
2017-Oct-07 10:00N 38°33' E 015°33'917.9
2017-Oct-07 09:30N 38°25' E 015°38'917.7
2017-Oct-07 09:01N 38°17' E 015°43'713.7
2017-Oct-07 08:30N 38°12' E 015°37'714.7
2017-Oct-07 08:01N 38°05' E 015°36'817.0
2017-Oct-07 07:31N 37°57' E 015°35'917.6
2017-Oct-07 07:01N 37°48' E 015°34'917.6
2017-Oct-07 06:30N 37°39' E 015°33'917.6
2017-Oct-07 05:59N 37°30' E 015°32'1417.5
2017-Oct-07 05:11N 37°16' E 015°30'717.5
2017-Oct-07 04:47N 37°09' E 015°30'7017.8
2017-Oct-07 00:51N 36°03' E 015°01'617.7
2017-Oct-07 00:30N 35°57' E 014°57'1217.2
2017-Oct-06 23:47N 35°50' E 014°45'518.3
2017-Oct-06 23:30N 35°48' E 014°39'510.1
2017-Oct-06 22:58N 35°49' E 014°33'0 0.3
2017-Oct-06 22:30N 35°49' E 014°33'0 0.0
2017-Oct-06 22:00N 35°49' E 014°33'0 0.0
2017-Oct-06 21:12N 35°49' E 014°33'0 0.0
2017-Oct-06 20:05N 35°49' E 014°33'0 0.0
2017-Oct-06 19:47N 35°49' E 014°33'0 0.0
2017-Oct-06 19:29N 35°49' E 014°33'0 0.0
2017-Oct-06 14:27N 35°49' E 014°33'0 0.0
2017-Oct-06 13:57N 35°49' E 014°33'0 0.0
2017-Oct-06 13:27N 35°49' E 014°33'0 0.0
2017-Oct-06 11:10N 35°49' E 014°33'0 0.0
2017-Oct-06 10:55N 35°49' E 014°33'0 0.0
2017-Oct-06 10:25N 35°49' E 014°33'0 0.0
2017-Oct-06 09:52N 35°49' E 014°33'0 0.0
2017-Oct-06 09:25N 35°49' E 014°33'0 0.0
2017-Oct-06 07:15N 35°49' E 014°33'0 0.0
2017-Oct-06 06:54N 35°49' E 014°33'0 0.0
2017-Oct-06 06:29N 35°49' E 014°33'0 0.0
2017-Oct-06 05:59N 35°49' E 014°33'0 0.0
2017-Oct-06 05:26N 35°49' E 014°33'  

Dump ship's entire track history